createdAt,value
2019-03-24T00:01:41.471Z,3.51
2019-03-24T00:04:10.143Z,3.51
2019-03-24T00:06:39.962Z,3.68
2019-03-24T00:09:13.364Z,3.68
2019-03-24T00:11:43.181Z,3.63
2019-03-24T00:14:13.966Z,3.54
2019-03-24T00:16:43.801Z,3.51
2019-03-24T00:19:13.607Z,3.46
2019-03-24T00:21:43.415Z,3.43
2019-03-24T00:24:13.343Z,3.36
2019-03-24T00:26:45.022Z,3.28
2019-03-24T00:29:17.233Z,3.23
2019-03-24T00:31:47.988Z,3.19
2019-03-24T00:34:18.598Z,3.18
2019-03-24T00:36:48.545Z,3.14
2019-03-24T00:39:18.329Z,3.09
2019-03-24T00:41:48.134Z,2.99
2019-03-24T00:44:17.987Z,2.92
2019-03-24T00:46:47.749Z,2.87
2019-03-24T00:49:17.631Z,2.81
2019-03-24T00:51:47.469Z,2.79
2019-03-24T00:54:17.286Z,2.78
2019-03-24T00:56:47.086Z,2.77
2019-03-24T00:59:16.897Z,2.72
2019-03-24T01:01:46.724Z,2.56
2019-03-24T01:04:16.565Z,2.54
2019-03-24T01:06:46.331Z,2.56
2019-03-24T01:09:16.244Z,2.58
2019-03-24T01:11:45.952Z,2.58
2019-03-24T01:14:15.753Z,2.59
2019-03-24T01:16:45.525Z,2.61
2019-03-24T01:19:15.336Z,2.60
2019-03-24T01:21:45.165Z,2.58
2019-03-24T01:24:14.944Z,2.55
2019-03-24T01:26:44.708Z,2.55
2019-03-24T01:29:14.567Z,2.51
2019-03-24T01:31:45.012Z,2.49
2019-03-24T01:34:14.782Z,2.48
2019-03-24T01:36:46.115Z,2.43
2019-03-24T01:39:16.068Z,2.34
2019-03-24T01:41:45.861Z,2.31
2019-03-24T01:44:15.647Z,2.25
2019-03-24T01:46:46.450Z,2.25
2019-03-24T01:49:16.226Z,2.23
2019-03-24T01:51:47.122Z,2.22
2019-03-24T01:54:17.305Z,2.22
2019-03-24T01:56:47.118Z,2.25
2019-03-24T01:59:18.164Z,2.23
2019-03-24T02:01:47.952Z,2.20
2019-03-24T02:04:17.775Z,2.13
2019-03-24T02:06:47.371Z,2.13
2019-03-24T02:09:17.143Z,2.05
2019-03-24T02:11:46.951Z,1.99
2019-03-24T02:14:16.748Z,1.88
2019-03-24T02:16:46.418Z,1.84
2019-03-24T02:19:16.198Z,1.78
2019-03-24T02:21:46.062Z,1.74
2019-03-24T02:24:15.687Z,1.73
2019-03-24T02:26:45.457Z,1.71
2019-03-24T02:29:15.518Z,1.65
2019-03-24T02:31:45.515Z,1.61
2019-03-24T02:34:15.541Z,1.56
2019-03-24T02:36:46.254Z,1.53
2019-03-24T02:39:16.082Z,1.48
2019-03-24T02:41:45.794Z,1.40
2019-03-24T02:44:15.592Z,1.40
2019-03-24T02:46:45.783Z,1.36
2019-03-24T02:49:16.345Z,1.35
2019-03-24T02:51:46.167Z,1.35
2019-03-24T02:54:15.985Z,1.34
2019-03-24T02:56:45.830Z,1.29
2019-03-24T02:59:16.299Z,1.30
2019-03-24T03:01:47.014Z,1.27
2019-03-24T03:04:16.870Z,1.18
2019-03-24T03:06:46.652Z,1.11
2019-03-24T03:09:16.522Z,1.16
2019-03-24T03:11:46.540Z,1.16
2019-03-24T03:14:16.386Z,1.21
2019-03-24T03:16:47.047Z,1.20
2019-03-24T03:19:16.827Z,1.06
2019-03-24T03:21:46.620Z,1.02
2019-03-24T03:24:16.397Z,1.03
2019-03-24T03:26:46.259Z,1.04
2019-03-24T03:29:16.051Z,1.03
2019-03-24T03:31:45.838Z,1.05
2019-03-24T03:34:15.646Z,0.96
2019-03-24T03:36:45.483Z,0.89
2019-03-24T03:39:15.545Z,0.88
2019-03-24T03:41:46.848Z,0.86
2019-03-24T03:44:16.666Z,0.83
2019-03-24T03:46:52.839Z,0.81
2019-03-24T03:49:18.890Z,0.76
2019-03-24T03:51:49.647Z,0.76
2019-03-24T03:54:19.501Z,0.71
2019-03-24T03:56:49.208Z,0.69
2019-03-24T03:59:20.731Z,0.70
2019-03-24T04:01:53.625Z,0.56
2019-03-24T04:04:23.531Z,0.57
2019-03-24T04:06:53.317Z,0.55
2019-03-24T04:09:23.306Z,0.52
2019-03-24T04:11:53.534Z,0.50
2019-03-24T04:14:23.326Z,0.47
2019-03-24T04:17:06.465Z,0.46
2019-03-24T04:19:24.619Z,0.47
2019-03-24T04:21:54.448Z,0.48
2019-03-24T04:24:24.241Z,0.42
2019-03-24T04:26:54.081Z,0.36
2019-03-24T04:29:23.880Z,0.34
2019-03-24T04:31:53.998Z,0.29
2019-03-24T04:34:23.840Z,0.31
2019-03-24T04:36:53.624Z,0.23
2019-03-24T04:39:23.417Z,0.24
2019-03-24T04:41:53.175Z,0.26
2019-03-24T04:44:22.973Z,0.20
2019-03-24T04:46:52.739Z,0.20
2019-03-24T04:49:22.556Z,0.24
2019-03-24T04:51:52.349Z,0.30
2019-03-24T04:54:22.137Z,0.33
2019-03-24T04:56:51.912Z,0.33
2019-03-24T04:59:21.672Z,0.27
2019-03-24T05:01:51.457Z,0.28
2019-03-24T05:04:21.250Z,0.28
2019-03-24T05:06:51.036Z,0.29
2019-03-24T05:09:21.097Z,0.31
2019-03-24T05:11:50.961Z,0.36
2019-03-24T05:14:20.744Z,0.50
2019-03-24T05:16:50.494Z,0.65
2019-03-24T05:19:20.312Z,1.13
2019-03-24T05:21:50.101Z,1.82
2019-03-24T05:24:19.932Z,2.30
2019-03-24T05:26:49.732Z,2.73
2019-03-24T05:29:19.679Z,2.96
2019-03-24T05:31:49.493Z,3.06
2019-03-24T05:34:19.220Z,3.14
2019-03-24T05:36:49.027Z,3.17
2019-03-24T05:39:18.776Z,3.23
2019-03-24T05:41:48.589Z,3.34
2019-03-24T05:44:18.385Z,3.54
2019-03-24T05:46:48.192Z,3.71
2019-03-24T05:49:18.002Z,3.81
2019-03-24T05:51:47.795Z,3.91
2019-03-24T05:54:17.595Z,4.03
2019-03-24T05:56:48.782Z,4.28
2019-03-24T05:59:18.591Z,4.51
2019-03-24T06:01:48.551Z,5.00
2019-03-24T06:04:18.941Z,5.54
2019-03-24T06:06:50.693Z,6.10
2019-03-24T06:09:20.311Z,6.58
2019-03-24T06:11:50.111Z,7.14
2019-03-24T06:14:22.353Z,7.45
2019-03-24T06:16:52.248Z,7.79
2019-03-24T06:19:22.166Z,8.07
2019-03-24T06:21:51.981Z,8.36
2019-03-24T06:24:21.667Z,8.65
2019-03-24T06:26:51.987Z,8.83
2019-03-24T06:29:21.757Z,9.09
2019-03-24T06:31:51.533Z,8.92
2019-03-24T06:34:21.157Z,8.76
2019-03-24T06:36:54.905Z,8.97
2019-03-24T06:39:24.696Z,9.17
2019-03-24T06:41:54.579Z,9.20
2019-03-24T06:44:24.380Z,9.20
2019-03-24T06:46:54.217Z,9.20
2019-03-24T06:49:24.015Z,9.17
2019-03-24T06:51:53.810Z,9.20
2019-03-24T06:54:23.628Z,9.29
2019-03-24T06:56:53.447Z,9.35
2019-03-24T06:59:24.390Z,9.44
2019-03-24T07:01:54.426Z,9.53
2019-03-24T07:04:27.522Z,9.63
2019-03-24T07:07:00.390Z,9.68
2019-03-24T07:09:30.066Z,9.80
2019-03-24T07:12:00.549Z,9.67
2019-03-24T07:14:30.366Z,9.76
2019-03-24T07:17:00.163Z,9.77
2019-03-24T07:19:29.957Z,9.94
2019-03-24T07:21:59.925Z,10.11
2019-03-24T07:24:29.789Z,10.20
2019-03-24T07:26:59.630Z,10.38
2019-03-24T07:29:29.426Z,10.54
2019-03-24T07:31:59.265Z,10.69
2019-03-24T07:34:29.095Z,10.89
2019-03-24T07:36:58.936Z,11.08
2019-03-24T07:39:28.754Z,11.22
2019-03-24T07:41:58.857Z,11.41
2019-03-24T07:44:28.702Z,11.71
2019-03-24T07:46:59.126Z,11.94
2019-03-24T07:49:29.973Z,12.11
2019-03-24T07:51:59.818Z,12.33
2019-03-24T07:54:30.626Z,12.50
2019-03-24T07:57:00.413Z,12.58
2019-03-24T07:59:30.336Z,12.80
2019-03-24T08:02:00.094Z,13.04
2019-03-24T08:04:29.868Z,13.10
2019-03-24T08:06:59.671Z,13.24
2019-03-24T08:09:29.496Z,13.43
2019-03-24T08:11:59.429Z,13.71
2019-03-24T08:14:29.305Z,13.98
2019-03-24T08:16:59.210Z,14.19
2019-03-24T08:19:29.034Z,14.29
2019-03-24T08:21:58.780Z,14.30
2019-03-24T08:24:28.615Z,14.50
2019-03-24T08:26:58.413Z,14.64
2019-03-24T08:29:28.221Z,14.88
2019-03-24T08:31:57.876Z,15.16
2019-03-24T08:34:27.694Z,14.98
2019-03-24T08:36:57.445Z,14.50
2019-03-24T08:39:27.361Z,14.37
2019-03-24T08:41:57.152Z,14.66
2019-03-24T08:44:26.939Z,14.76
2019-03-24T08:46:56.754Z,14.64
2019-03-24T08:49:26.490Z,14.86
2019-03-24T08:51:56.389Z,14.60
2019-03-24T08:54:26.200Z,15.11
2019-03-24T08:56:55.977Z,15.34
2019-03-24T08:59:25.729Z,15.77
2019-03-24T09:01:55.626Z,16.16
2019-03-24T09:04:25.455Z,16.47
2019-03-24T09:06:55.247Z,15.87
2019-03-24T09:09:24.970Z,16.16
2019-03-24T09:11:54.784Z,16.51
2019-03-24T09:14:24.620Z,16.73
2019-03-24T09:16:54.469Z,16.81
2019-03-24T09:19:24.257Z,17.04
2019-03-24T09:21:54.036Z,16.94
2019-03-24T09:24:23.860Z,17.07
2019-03-24T09:26:53.671Z,17.09
2019-03-24T09:29:23.457Z,17.17
2019-03-24T09:31:53.257Z,17.27
2019-03-24T09:34:23.049Z,17.39
2019-03-24T09:36:53.418Z,17.31
2019-03-24T09:39:23.216Z,17.35
2019-03-24T09:41:55.435Z,17.38
2019-03-24T09:44:25.200Z,17.39
2019-03-24T09:46:55.031Z,17.42
2019-03-24T09:49:24.789Z,17.42
2019-03-24T09:51:54.619Z,17.39
2019-03-24T09:54:24.475Z,17.37
2019-03-24T09:56:54.277Z,17.35
2019-03-24T09:59:24.074Z,17.26
2019-03-24T10:01:53.899Z,17.37
2019-03-24T10:04:23.715Z,17.34
2019-03-24T10:06:53.756Z,17.33
2019-03-24T10:09:26.406Z,16.97
2019-03-24T10:11:56.254Z,17.08
2019-03-24T10:14:26.072Z,17.08
2019-03-24T10:16:55.883Z,17.28
2019-03-24T10:19:25.796Z,17.31
2019-03-24T10:21:55.614Z,17.13
2019-03-24T10:24:25.447Z,17.29
2019-03-24T10:26:55.933Z,17.40
2019-03-24T10:29:27.056Z,17.44
2019-03-24T10:31:56.818Z,17.45
2019-03-24T10:34:27.446Z,17.55
2019-03-24T10:36:57.249Z,17.55
2019-03-24T10:39:27.044Z,17.50
2019-03-24T10:41:56.883Z,17.39
2019-03-24T10:44:26.687Z,17.35
2019-03-24T10:46:56.692Z,17.39
2019-03-24T10:49:28.397Z,17.42
2019-03-24T10:51:58.267Z,17.39
2019-03-24T10:54:29.033Z,17.35
2019-03-24T10:56:58.840Z,17.28
2019-03-24T10:59:30.093Z,17.28
2019-03-24T11:01:59.894Z,17.21
2019-03-24T11:04:29.709Z,17.19
2019-03-24T11:06:59.507Z,17.07
2019-03-24T11:09:29.847Z,16.99
2019-03-24T11:11:59.599Z,17.01
2019-03-24T11:14:29.439Z,16.88
2019-03-24T11:16:59.254Z,16.88
2019-03-24T11:19:35.751Z,16.77
2019-03-24T11:22:00.632Z,16.99
2019-03-24T11:24:30.441Z,16.70
2019-03-24T11:27:00.326Z,16.71
2019-03-24T11:29:30.132Z,16.70
2019-03-24T11:31:59.886Z,16.60
2019-03-24T11:34:30.294Z,16.60
2019-03-24T11:37:00.128Z,16.67
2019-03-24T11:39:30.069Z,16.71
2019-03-24T11:41:59.956Z,16.71
2019-03-24T11:44:29.680Z,16.73
2019-03-24T11:46:59.474Z,16.84
2019-03-24T11:49:29.433Z,16.83
2019-03-24T11:51:59.219Z,16.79
2019-03-24T11:54:29.066Z,16.81
2019-03-24T11:56:58.861Z,16.82
2019-03-24T11:59:28.671Z,16.82
2019-03-24T12:02:00.824Z,16.71
2019-03-24T12:04:30.626Z,16.61
2019-03-24T12:07:00.398Z,16.73
2019-03-24T12:09:30.238Z,16.65
2019-03-24T12:12:00.020Z,16.52
2019-03-24T12:14:29.836Z,16.45
2019-03-24T12:16:59.672Z,16.40
2019-03-24T12:19:29.496Z,16.40
2019-03-24T12:21:59.242Z,16.39
2019-03-24T12:24:29.041Z,16.36
2019-03-24T12:26:58.855Z,16.40
2019-03-24T12:29:28.766Z,16.50
2019-03-24T12:32:00.952Z,16.49
2019-03-24T12:34:30.816Z,16.56
2019-03-24T12:37:00.657Z,16.42
2019-03-24T12:39:30.491Z,16.42
2019-03-24T12:42:01.558Z,16.35
2019-03-24T12:44:31.372Z,16.27
2019-03-24T12:47:01.298Z,16.21
2019-03-24T12:49:31.105Z,16.28
2019-03-24T12:52:00.980Z,16.27
2019-03-24T12:54:31.358Z,16.23
2019-03-24T12:57:01.768Z,16.24
2019-03-24T12:59:31.586Z,16.31
2019-03-24T13:02:01.419Z,16.21
2019-03-24T13:04:31.275Z,16.18
2019-03-24T13:07:01.086Z,16.11
2019-03-24T13:09:30.857Z,16.11
2019-03-24T13:12:00.660Z,16.03
2019-03-24T13:14:30.805Z,16.02
2019-03-24T13:17:02.314Z,16.06
2019-03-24T13:19:32.124Z,16.33
2019-03-24T13:22:01.875Z,16.24
2019-03-24T13:24:31.667Z,16.14
2019-03-24T13:27:01.406Z,16.13
2019-03-24T13:29:31.257Z,16.06
2019-03-24T13:32:01.162Z,16.00
2019-03-24T13:34:31.440Z,15.94
2019-03-24T13:37:01.305Z,15.89
2019-03-24T13:39:31.181Z,15.93
2019-03-24T13:42:01.041Z,15.99
2019-03-24T13:44:30.820Z,15.91
2019-03-24T13:47:00.699Z,15.90
2019-03-24T13:49:30.528Z,15.91
2019-03-24T13:52:00.348Z,15.90
2019-03-24T13:54:32.838Z,15.85
2019-03-24T13:57:03.585Z,15.85
2019-03-24T13:59:33.466Z,16.09
2019-03-24T14:02:03.560Z,15.98
2019-03-24T14:04:33.298Z,15.93
2019-03-24T14:07:03.251Z,15.85
2019-03-24T14:09:34.574Z,15.78
2019-03-24T14:12:04.372Z,15.86
2019-03-24T14:14:34.294Z,15.88
2019-03-24T14:17:04.209Z,15.91
2019-03-24T14:19:35.506Z,15.86
2019-03-24T14:22:05.437Z,15.88
2019-03-24T14:24:35.322Z,15.71
2019-03-24T14:27:05.244Z,15.64
2019-03-24T14:29:35.184Z,15.69
2019-03-24T14:32:06.015Z,15.69
2019-03-24T14:34:35.683Z,15.73
2019-03-24T14:37:05.609Z,15.76
2019-03-24T14:39:35.525Z,15.76
2019-03-24T14:42:05.550Z,15.76
2019-03-24T14:44:35.458Z,15.71
2019-03-24T14:47:06.215Z,15.68
2019-03-24T14:49:36.060Z,15.69
2019-03-24T14:52:05.973Z,15.75
2019-03-24T14:54:35.896Z,15.66
2019-03-24T14:57:05.798Z,15.67
2019-03-24T14:59:35.632Z,15.76
2019-03-24T15:02:05.561Z,15.76
2019-03-24T15:04:35.469Z,15.74
2019-03-24T15:07:05.284Z,15.79
2019-03-24T15:09:35.091Z,15.66
2019-03-24T15:12:05.019Z,15.71
2019-03-24T15:14:34.852Z,15.54
2019-03-24T15:17:04.759Z,15.42
2019-03-24T15:19:34.656Z,15.43
2019-03-24T15:22:04.571Z,15.40
2019-03-24T15:24:34.337Z,15.37
2019-03-24T15:27:04.167Z,15.33
2019-03-24T15:29:33.974Z,15.33
2019-03-24T15:32:03.809Z,15.26
2019-03-24T15:34:33.610Z,15.24
2019-03-24T15:37:03.540Z,15.24
2019-03-24T15:39:33.367Z,15.28
2019-03-24T15:42:03.266Z,15.22
2019-03-24T15:44:33.180Z,15.23
2019-03-24T15:47:04.731Z,15.15
2019-03-24T15:49:34.585Z,15.12
2019-03-24T15:52:04.402Z,15.08
2019-03-24T15:54:35.741Z,15.13
2019-03-24T15:57:05.609Z,15.10
2019-03-24T15:59:35.723Z,15.03
2019-03-24T16:02:05.757Z,15.00
2019-03-24T16:04:36.006Z,14.97
2019-03-24T16:07:05.814Z,14.94
2019-03-24T16:09:35.860Z,14.90
2019-03-24T16:12:05.758Z,14.82
2019-03-24T16:14:35.625Z,14.75
2019-03-24T16:17:05.403Z,14.70
2019-03-24T16:19:36.139Z,14.67
2019-03-24T16:22:05.984Z,14.66
2019-03-24T16:24:36.152Z,14.61
2019-03-24T16:27:06.087Z,14.59
2019-03-24T16:29:36.067Z,14.53
2019-03-24T16:32:06.306Z,14.45
2019-03-24T16:34:36.213Z,14.38
2019-03-24T16:37:06.071Z,14.30
2019-03-24T16:39:35.952Z,14.22
2019-03-24T16:42:05.932Z,14.18
2019-03-24T16:44:35.749Z,14.14
2019-03-24T16:47:05.587Z,14.08
2019-03-24T16:49:35.396Z,14.03
2019-03-24T16:52:06.386Z,13.96
2019-03-24T16:54:36.297Z,13.88
2019-03-24T16:57:06.226Z,13.79
2019-03-24T16:59:36.044Z,13.69
2019-03-24T17:02:05.999Z,13.57
2019-03-24T17:04:35.913Z,13.44
2019-03-24T17:07:06.120Z,13.30
2019-03-24T17:09:35.914Z,13.19
2019-03-24T17:12:05.808Z,13.07
2019-03-24T17:14:35.619Z,12.97
2019-03-24T17:17:05.409Z,12.88
2019-03-24T17:19:35.202Z,12.80
2019-03-24T17:22:05.062Z,12.76
2019-03-24T17:24:34.838Z,12.69
2019-03-24T17:27:04.706Z,12.65
2019-03-24T17:29:34.520Z,12.55
2019-03-24T17:32:06.868Z,12.46
2019-03-24T17:34:36.804Z,12.35
2019-03-24T17:37:06.785Z,12.23
2019-03-24T17:39:36.645Z,12.12
2019-03-24T17:42:06.535Z,12.02
2019-03-24T17:44:36.371Z,11.93
2019-03-24T17:47:09.494Z,11.85
2019-03-24T17:49:39.596Z,11.74
2019-03-24T17:52:09.552Z,11.61
2019-03-24T17:54:39.543Z,11.51
2019-03-24T17:57:10.412Z,11.42
2019-03-24T17:59:40.431Z,11.39
2019-03-24T18:02:14.536Z,11.35
2019-03-24T18:04:41.843Z,11.41
2019-03-24T18:07:11.648Z,11.29
2019-03-24T18:09:41.462Z,11.18
2019-03-24T18:12:11.333Z,11.11
2019-03-24T18:14:41.204Z,11.09
2019-03-24T18:17:11.170Z,11.07
2019-03-24T18:19:40.986Z,11.08
2019-03-24T18:22:11.838Z,11.19
2019-03-24T18:24:41.974Z,11.20
2019-03-24T18:27:13.260Z,11.01
2019-03-24T18:29:43.183Z,10.81
2019-03-24T18:32:13.094Z,10.98
2019-03-24T18:34:42.932Z,11.01
2019-03-24T18:37:12.813Z,10.95
2019-03-24T18:39:42.670Z,10.90
2019-03-24T18:42:12.556Z,10.63
2019-03-24T18:44:43.402Z,10.51
2019-03-24T18:47:14.217Z,10.62
2019-03-24T18:49:44.139Z,10.78
2019-03-24T18:52:22.620Z,10.50
2019-03-24T18:54:48.701Z,10.43
2019-03-24T18:57:18.586Z,10.49
2019-03-24T18:59:48.623Z,10.56
2019-03-24T19:02:18.566Z,10.71
2019-03-24T19:04:48.475Z,10.75
2019-03-24T19:07:18.389Z,10.62
2019-03-24T19:09:48.330Z,10.47
2019-03-24T19:12:18.275Z,10.29
2019-03-24T19:14:48.404Z,10.08
2019-03-24T19:17:19.311Z,9.90
2019-03-24T19:19:49.380Z,10.11
2019-03-24T19:22:20.747Z,10.23
2019-03-24T19:24:50.688Z,10.12
2019-03-24T19:27:20.569Z,10.14
2019-03-24T19:29:50.454Z,10.16
2019-03-24T19:32:21.769Z,10.16
2019-03-24T19:34:51.918Z,10.07
2019-03-24T19:37:22.196Z,10.16
2019-03-24T19:39:53.346Z,10.17
2019-03-24T19:42:24.409Z,10.05
2019-03-24T19:44:54.290Z,10.07
2019-03-24T19:47:24.237Z,9.90
2019-03-24T19:49:54.128Z,9.86
2019-03-24T19:52:24.126Z,9.84
2019-03-24T19:54:57.057Z,9.83
2019-03-24T19:57:27.440Z,9.76
2019-03-24T19:59:57.441Z,9.58
2019-03-24T20:02:27.460Z,9.31
2019-03-24T20:04:57.306Z,9.08
2019-03-24T20:07:27.057Z,8.92
2019-03-24T20:09:57.020Z,8.82
2019-03-24T20:12:26.941Z,8.74
2019-03-24T20:14:56.819Z,8.96
2019-03-24T20:17:26.653Z,9.02
2019-03-24T20:19:56.577Z,8.88
2019-03-24T20:22:26.461Z,8.75
2019-03-24T20:24:56.320Z,8.60
2019-03-24T20:27:26.188Z,8.55
2019-03-24T20:29:56.026Z,8.35
2019-03-24T20:32:25.898Z,8.19
2019-03-24T20:34:55.861Z,8.20
2019-03-24T20:37:25.866Z,8.18
2019-03-24T20:39:57.189Z,8.31
2019-03-24T20:42:27.035Z,8.17
2019-03-24T20:44:56.914Z,8.30
2019-03-24T20:47:26.718Z,8.41
2019-03-24T20:49:58.128Z,8.45
2019-03-24T20:52:27.995Z,8.35
2019-03-24T20:54:57.785Z,8.10
2019-03-24T20:57:27.604Z,8.02
2019-03-24T20:59:59.066Z,7.94
2019-03-24T21:02:28.992Z,7.91
2019-03-24T21:04:58.774Z,7.88
2019-03-24T21:07:28.611Z,8.02
2019-03-24T21:09:58.409Z,7.94
2019-03-24T21:12:28.329Z,7.92
2019-03-24T21:14:58.224Z,7.86
2019-03-24T21:17:28.057Z,7.77
2019-03-24T21:19:57.866Z,7.70
2019-03-24T21:22:27.688Z,7.73
2019-03-24T21:24:57.524Z,7.77
2019-03-24T21:27:27.298Z,7.77
2019-03-24T21:29:57.158Z,8.00
2019-03-24T21:32:26.983Z,8.01
2019-03-24T21:34:56.864Z,7.76
2019-03-24T21:37:27.090Z,7.53
2019-03-24T21:39:56.994Z,7.44
2019-03-24T21:42:26.845Z,7.46
2019-03-24T21:44:56.649Z,7.84
2019-03-24T21:47:26.465Z,8.21
2019-03-24T21:49:56.324Z,8.27
2019-03-24T21:52:26.128Z,8.23
2019-03-24T21:54:55.993Z,7.98
2019-03-24T21:57:25.809Z,7.79
2019-03-24T21:59:55.767Z,7.62
2019-03-24T22:02:25.684Z,7.47
2019-03-24T22:04:56.044Z,7.32
2019-03-24T22:07:25.991Z,7.26
2019-03-24T22:09:55.770Z,7.16
2019-03-24T22:12:25.572Z,7.07
2019-03-24T22:14:55.352Z,7.04
2019-03-24T22:17:25.143Z,7.00
2019-03-24T22:19:54.917Z,7.00
2019-03-24T22:22:24.696Z,6.98
2019-03-24T22:24:57.548Z,6.97
2019-03-24T22:27:27.729Z,6.94
2019-03-24T22:29:57.492Z,6.93
2019-03-24T22:32:27.370Z,6.96
2019-03-24T22:34:57.156Z,6.97
2019-03-24T22:37:26.970Z,6.95
2019-03-24T22:39:56.775Z,6.91
2019-03-24T22:42:26.892Z,6.90
2019-03-24T22:44:59.125Z,6.93
2019-03-24T22:47:28.848Z,6.96
2019-03-24T22:49:58.654Z,6.98
2019-03-24T22:52:30.369Z,7.04
2019-03-24T22:55:00.341Z,7.08
2019-03-24T22:57:32.564Z,7.14
2019-03-24T23:00:01.690Z,7.19
2019-03-24T23:02:31.465Z,7.22
2019-03-24T23:05:01.267Z,7.19
2019-03-24T23:07:31.081Z,7.10
2019-03-24T23:10:00.853Z,7.07
2019-03-24T23:12:30.673Z,7.02
2019-03-24T23:15:00.507Z,6.97
2019-03-24T23:17:30.318Z,6.89
2019-03-24T23:20:00.071Z,6.88
2019-03-24T23:22:29.933Z,6.91
2019-03-24T23:24:59.673Z,6.90
2019-03-24T23:27:29.441Z,6.90
2019-03-24T23:29:59.261Z,6.92
2019-03-24T23:32:29.058Z,6.95
2019-03-24T23:34:58.848Z,6.98
2019-03-24T23:37:28.651Z,7.00
2019-03-24T23:39:58.408Z,7.03
2019-03-24T23:42:28.228Z,7.04
2019-03-24T23:44:58.505Z,6.99
2019-03-24T23:47:28.697Z,6.99
2019-03-24T23:49:58.353Z,6.96
2019-03-24T23:52:28.066Z,6.96
2019-03-24T23:54:58.672Z,6.94
2019-03-24T23:57:28.453Z,6.93
2019-03-24T23:59:58.206Z,6.96
